الصفحة الرئيسية
METAR-TAF:

METAR-TAF

مطار :

مطار تورونتو بيرسون الدولي

تورونتو, أونتاريو, كندا

دائرة عرض: 43-40N, خط طول: 079-38W, ارتفاع: 173 متر

مراقبة الطقس الحالي

تاريخ ووقت الإصدار 48 دقيقة قبل الساعة 09:00UTC
ريح 13 عقدة من الشمال
درجة الحرارة 13°درجة مئوية
الرطوبة 88%
ضغط 1019 hPa
الرؤية: 24.1 كم
سماء صافية

METAR: CYYZ 250900Z 36013KT 15SM SKC 13/11 A3009 RMK SLP191

زمن: 05:48 (09:48 UTC)

توقعات

تاريخ ووقت الإصدار 1ساعة و 10 دقيقة قبل الساعة 08:38UTC
التوقعات صالحة من25 الساعة 09 UTC إلى 26 الساعة 12 UTC
ريح 8 عقدة من الشمال تتزايد حتى 18 عقدة
الرؤية: 10 كم
غيوم قليلة على ارتفاع 6000 قدم
من 25 الساعة 1300 UTC
ريح 12 عقدة من الشمال
الرؤية: 10 كم
سماء صافية
من 25 الساعة 2100 UTC
ريح 8 عقدة من الشمال
الرؤية: 10 كم
سماء صافية
أصبح
من 26 الساعة 05 UTC إلى 26 الساعة 07 UTC
ريح 3 عقدة من الشمال الغربي
أصبح
من 26 الساعة 10 UTC إلى 26 الساعة 12 UTC
ريح 3 عقدةمن اتجاهات متغيرة

TAF: CYYZ 250838Z 2509/2612 35008G18KT P6SM FEW060 FM251300 35012KT P6SM SKC FM252100 01008KT P6SM SKC BECMG 2605/2607 32003KT BECMG 2610/2612 VRB03KT RMK NXT FCST BY 251200Z

أرصاد الطقس والتوقعات من أكثر من 4000 مطار (تقارير الطقس للمطار METAR والتنبؤ بالطقس بالمطارTAF).

المحطات المتاحة هي النقط الصفراء والحمراء على الخريطة.

حرك المؤشر فوق النقطة لمعرفة اسم المحطة.

ثم انقر لمعرفة أرصاد وتوقعات الطقس.

لتغيير الخارطة: اضغط على الأزرار الخضراء مع رمز الصليب الأسود للتكبير. على الزر الأخضر مع شرطة للتصغير، أو على الأسهم الخضراء للخرائط المجاورة.


METAR-TAF: